SBOSBO TLS / LFBO
Speedbird OnlineSpeedbird Online TLS / LFBO

Toulouse-Blagnac Airport
06:29 2.9°C

Location Toulouse, France
Latitude: 43.629101
Longitude: 1.36382
Web Airport Website | Wikipedia
Altitude 152 Meter / 499 Feet
Distance 880 KM / 547 Miles
from London.
Time Zone UTC +1 hours (Europe/Paris)
Codes IATA: TLS
ICAO: LFBO
Currency £1 equals EUR 1.14
Runways
RunwayLength (m)Surface
14L3000Asphalt
14R3500Asphalt
32L3500Asphalt
32R3000Asphalt
Radio
TypeDescriptionFrequency
AFISTOULOUSE INFO121.25
APPAPP121.1
APPTOULOUSE APP125.175
ATISATIS123.125
CLDCLNC DEL121.7
GNDGND121.9
TWRTWR118.1
Live ATC
METAR LFBO 290500Z AUTO 27007KT 9999 OVC045 03/M00 Q1027 TEMPO 4000 BR BKN005
TAF TAF LFBO 282300Z 2900/3006 28010KT 9999 BKN045 BECMG 2904/2906 BKN007 PROB30 TEMPO 2905/2909 4000 BR BKN005 BECMG 2911/2913 BKN020 BECMG 2918/2920 VRB03KT TEMPO 2920/2923 SCT025 PROB30 TEMPO 3003/3006 3000 BR BKN013
Weather As Of 29 Jan 2023 06:29
Description Overcast clouds
Wind 13 km/h from West (270°)
Cloud Cover 100%
Precipitation Rain: none, Snow: none
Sunrise 08:14
Sunset 18:00
Lounges La Croix du Sud Lounge , Main
Rotations During the last 90 days there were
192 flights from LHR
193 flights to LHR



Support Speedbird Online

© 2017-2023 Speedbird Online